createdAt,value
2018-09-01T00:02:23.505Z,8.33
2018-09-01T00:04:50.336Z,7.50
2018-09-01T00:07:17.274Z,7.67
2018-09-01T00:09:44.054Z,7.97
2018-09-01T00:12:10.895Z,9.03
2018-09-01T00:14:37.721Z,10.50
2018-09-01T00:17:04.596Z,9.57
2018-09-01T00:19:31.419Z,9.77
2018-09-01T00:21:58.242Z,9.53
2018-09-01T00:24:25.069Z,6.90
2018-09-01T00:26:51.965Z,8.80
2018-09-01T00:29:18.792Z,8.70
2018-09-01T00:31:45.606Z,6.67
2018-09-01T00:34:12.502Z,8.90
2018-09-01T00:36:39.549Z,9.47
2018-09-01T00:39:06.383Z,9.37
2018-09-01T00:41:33.213Z,8.57
2018-09-01T00:44:00.033Z,7.47
2018-09-01T00:46:26.917Z,7.40
2018-09-01T00:48:53.721Z,8.13
2018-09-01T00:51:20.546Z,7.50
2018-09-01T00:53:47.385Z,9.83
2018-09-01T00:56:14.289Z,7.53
2018-09-01T00:58:41.122Z,10.47
2018-09-01T01:01:07.948Z,7.77
2018-09-01T01:03:34.774Z,7.30
2018-09-01T01:06:01.657Z,6.33
2018-09-01T01:08:28.480Z,7.33
2018-09-01T01:10:55.299Z,9.10
2018-09-01T01:13:22.188Z,8.10
2018-09-01T01:15:49.034Z,8.77
2018-09-01T01:18:15.863Z,9.13
2018-09-01T01:20:42.686Z,7.97
2018-09-01T01:23:09.517Z,9.63
2018-09-01T01:25:36.358Z,8.23
2018-09-01T01:28:03.251Z,7.77
2018-09-01T01:30:30.121Z,7.50
2018-09-01T01:32:56.921Z,8.00
2018-09-01T01:35:23.742Z,10.43
2018-09-01T01:37:50.595Z,9.30
2018-09-01T01:40:17.414Z,7.80
2018-09-01T01:42:44.241Z,8.97
2018-09-01T01:45:11.082Z,8.60
2018-09-01T01:47:38.005Z,5.73
2018-09-01T01:50:04.826Z,6.90
2018-09-01T01:52:31.660Z,7.13
2018-09-01T01:54:58.493Z,9.63
2018-09-01T01:57:26.378Z,7.30
2018-09-01T01:59:53.215Z,9.23
2018-09-01T02:02:20.039Z,7.70
2018-09-01T02:04:46.883Z,7.03
2018-09-01T02:07:13.753Z,8.03
2018-09-01T02:09:40.577Z,6.97
2018-09-01T02:12:07.416Z,8.53
2018-09-01T02:14:34.246Z,9.73
2018-09-01T02:17:01.133Z,7.50
2018-09-01T02:19:27.946Z,6.97
2018-09-01T02:21:54.798Z,8.90
2018-09-01T02:24:21.619Z,8.53
2018-09-01T02:26:48.501Z,7.10
2018-09-01T02:29:15.318Z,8.70
2018-09-01T02:31:42.183Z,9.37
2018-09-01T02:34:09.006Z,7.60
2018-09-01T02:36:35.872Z,7.80
2018-09-01T02:39:02.733Z,9.67
2018-09-01T02:41:29.567Z,6.90
2018-09-01T02:43:56.390Z,6.60
2018-09-01T02:46:23.238Z,7.50
2018-09-01T02:48:50.062Z,6.30
2018-09-01T02:51:16.890Z,8.90
2018-09-01T02:53:43.720Z,8.00
2018-09-01T02:56:10.602Z,8.50
2018-09-01T02:58:37.422Z,6.27
2018-09-01T03:01:04.252Z,7.10
2018-09-01T03:03:31.093Z,6.20
2018-09-01T03:05:57.985Z,7.77
2018-09-01T03:08:24.819Z,7.33
2018-09-01T03:10:51.670Z,6.70
2018-09-01T03:13:18.498Z,7.20
2018-09-01T03:15:45.329Z,7.10
2018-09-01T03:18:12.160Z,7.40
2018-09-01T03:20:38.982Z,6.40
2018-09-01T03:23:05.789Z,7.03
2018-09-01T03:25:32.608Z,7.70
2018-09-01T03:27:59.434Z,7.27
2018-09-01T03:30:26.271Z,7.90
2018-09-01T03:32:53.099Z,7.83
2018-09-01T03:35:19.935Z,6.20
2018-09-01T03:37:46.938Z,9.33
2018-09-01T03:40:13.770Z,7.23
2018-09-01T03:42:40.593Z,6.70
2018-09-01T03:45:07.429Z,5.93
2018-09-01T03:47:34.322Z,7.20
2018-09-01T03:50:01.134Z,5.67
2018-09-01T03:52:27.966Z,7.40
2018-09-01T03:54:54.786Z,6.20
2018-09-01T03:57:21.690Z,6.97
2018-09-01T03:59:48.530Z,6.63
2018-09-01T04:02:15.419Z,8.77
2018-09-01T04:04:42.240Z,7.30
2018-09-01T04:07:09.265Z,8.57
2018-09-01T04:09:36.088Z,8.03
2018-09-01T04:12:02.933Z,8.17
2018-09-01T04:14:29.777Z,7.27
2018-09-01T04:16:56.635Z,6.63
2018-09-01T04:19:23.461Z,5.90
2018-09-01T04:21:50.287Z,6.33
2018-09-01T04:24:17.119Z,6.63
2018-09-01T04:26:43.997Z,6.73
2018-09-01T04:29:10.838Z,5.90
2018-09-01T04:31:37.660Z,6.43
2018-09-01T04:34:04.483Z,6.30
2018-09-01T04:36:31.372Z,5.47
2018-09-01T04:38:58.199Z,8.10
2018-09-01T04:41:25.025Z,6.93
2018-09-01T04:43:51.857Z,5.73
2018-09-01T04:46:18.742Z,11.00
2018-09-01T04:48:45.580Z,6.47
2018-09-01T04:51:12.394Z,6.10
2018-09-01T04:53:39.278Z,7.07
2018-09-01T04:56:06.122Z,5.20
2018-09-01T04:58:32.957Z,6.37
2018-09-01T05:00:59.859Z,4.90
2018-09-01T05:03:26.614Z,5.40
2018-09-01T05:05:53.498Z,5.50
2018-09-01T05:08:20.309Z,8.70
2018-09-01T05:10:47.131Z,7.37
2018-09-01T05:13:13.965Z,7.50
2018-09-01T05:15:40.801Z,5.77
2018-09-01T05:18:07.622Z,5.03
2018-09-01T05:20:34.440Z,5.47
2018-09-01T05:23:01.275Z,6.17
2018-09-01T05:25:28.108Z,5.03
2018-09-01T05:27:54.941Z,6.23
2018-09-01T05:30:21.775Z,6.50
2018-09-01T05:32:48.614Z,5.73
2018-09-01T05:35:15.444Z,5.37
2018-09-01T05:37:42.451Z,5.07
2018-09-01T05:40:09.286Z,7.00
2018-09-01T05:42:36.110Z,10.40
2018-09-01T05:45:02.935Z,5.10
2018-09-01T05:47:29.832Z,7.10
2018-09-01T05:49:56.651Z,7.53
2018-09-01T05:52:23.494Z,7.13
2018-09-01T05:54:50.306Z,5.30
2018-09-01T05:57:17.190Z,6.03
2018-09-01T05:59:44.005Z,6.00
2018-09-01T06:02:10.967Z,7.50
2018-09-01T06:04:37.771Z,5.67
2018-09-01T06:07:04.782Z,6.97
2018-09-01T06:09:31.613Z,7.37
2018-09-01T06:11:58.657Z,5.53
2018-09-01T06:14:25.497Z,7.03
2018-09-01T06:16:52.346Z,7.90
2018-09-01T06:19:19.253Z,4.90
2018-09-01T06:21:46.009Z,6.73
2018-09-01T06:24:12.843Z,4.80
2018-09-01T06:26:39.722Z,8.60
2018-09-01T06:29:06.560Z,4.57
2018-09-01T06:31:33.391Z,7.30
2018-09-01T06:34:00.243Z,5.87
2018-09-01T06:36:27.112Z,4.80
2018-09-01T06:38:53.923Z,6.33
2018-09-01T06:41:21.241Z,5.03
2018-09-01T06:43:48.078Z,13.73
2018-09-01T06:46:15.079Z,5.10
2018-09-01T06:48:41.904Z,6.17
2018-09-01T06:51:08.731Z,9.47
2018-09-01T06:53:35.568Z,12.43
2018-09-01T06:56:02.449Z,6.33
2018-09-01T06:58:29.271Z,7.20
2018-09-01T07:00:56.094Z,7.07
2018-09-01T07:03:22.920Z,6.33
2018-09-01T07:05:49.814Z,10.73
2018-09-01T07:08:16.661Z,7.60
2018-09-01T07:10:43.492Z,47.93
2018-09-01T07:13:10.327Z,16.13
2018-09-01T07:15:37.178Z,17.07
2018-09-01T07:18:04.030Z,17.10
2018-09-01T07:20:30.857Z,21.27
2018-09-01T07:22:57.717Z,19.43
2018-09-01T07:25:24.551Z,30.63
2018-09-01T07:27:51.391Z,27.80
2018-09-01T07:30:18.345Z,25.40
2018-09-01T07:32:45.056Z,15.43
2018-09-01T07:35:11.928Z,21.37
2018-09-01T07:37:38.791Z,19.30
2018-09-01T07:40:06.191Z,20.70
2018-09-01T07:42:33.034Z,31.10
2018-09-01T07:44:59.862Z,17.60
2018-09-01T07:47:26.757Z,20.50
2018-09-01T07:49:53.609Z,20.00
2018-09-01T07:52:20.437Z,22.80
2018-09-01T07:54:47.272Z,18.10
2018-09-01T07:57:14.134Z,18.97
2018-09-01T07:59:40.963Z,17.67
2018-09-01T08:02:07.787Z,16.90
2018-09-01T08:04:34.640Z,23.33
2018-09-01T08:07:01.511Z,13.60
2018-09-01T08:09:28.337Z,12.40
2018-09-01T08:11:55.162Z,15.43
2018-09-01T08:14:22.043Z,11.70
2018-09-01T08:16:48.882Z,15.83
2018-09-01T08:19:15.700Z,14.43
2018-09-01T08:21:42.536Z,13.80
2018-09-01T08:24:09.370Z,12.37
2018-09-01T08:26:36.449Z,12.87
2018-09-01T08:29:03.286Z,12.40
2018-09-01T08:31:30.117Z,17.70
2018-09-01T08:33:56.947Z,10.30
2018-09-01T08:36:23.766Z,10.53
2018-09-01T08:38:50.595Z,10.80
2018-09-01T08:41:17.419Z,13.97
2018-09-01T08:43:44.258Z,9.20
2018-09-01T08:46:11.191Z,9.50
2018-09-01T08:48:38.022Z,10.57
2018-09-01T08:51:04.847Z,12.30
2018-09-01T08:53:31.686Z,11.03
2018-09-01T08:55:58.562Z,9.40
2018-09-01T08:58:25.394Z,21.87
2018-09-01T09:00:52.237Z,10.50
2018-09-01T09:03:23.796Z,10.50
2018-09-01T09:05:50.650Z,8.60
2018-09-01T09:08:17.489Z,9.90
2018-09-01T09:10:44.310Z,9.30
2018-09-01T09:13:11.160Z,11.23
2018-09-01T09:15:37.990Z,10.80
2018-09-01T09:18:04.830Z,14.73
2018-09-01T09:20:31.665Z,7.67
2018-09-01T09:22:58.492Z,10.10
2018-09-01T09:25:25.326Z,9.50
2018-09-01T09:27:52.171Z,10.10
2018-09-01T09:30:18.985Z,6.13
2018-09-01T09:32:45.923Z,7.20
2018-09-01T09:35:12.749Z,8.60
2018-09-01T09:37:39.623Z,11.87
2018-09-01T09:40:06.474Z,9.90
2018-09-01T09:42:33.318Z,7.43
2018-09-01T09:45:00.132Z,8.40
2018-09-01T09:47:27.510Z,5.33
2018-09-01T09:49:54.411Z,7.63
2018-09-01T09:52:21.251Z,6.70
2018-09-01T09:54:48.098Z,6.70
2018-09-01T09:57:15.536Z,9.47
2018-09-01T09:59:42.563Z,8.80
2018-09-01T10:02:09.391Z,6.30
2018-09-01T10:04:36.246Z,5.60
2018-09-01T10:07:03.153Z,7.10
2018-09-01T10:09:30.133Z,5.20
2018-09-01T10:11:56.949Z,5.97
2018-09-01T10:14:23.779Z,5.10
2018-09-01T10:16:50.981Z,9.43
2018-09-01T10:19:17.992Z,8.07
2018-09-01T10:21:44.789Z,6.33
2018-09-01T10:24:11.623Z,7.50
2018-09-01T10:26:38.517Z,6.30
2018-09-01T10:29:05.339Z,6.43
2018-09-01T10:31:32.166Z,5.73
2018-09-01T10:33:59.732Z,12.23
2018-09-01T10:36:26.701Z,5.80
2018-09-01T10:38:53.525Z,6.13
2018-09-01T10:41:20.373Z,6.00
2018-09-01T10:43:47.234Z,5.80
2018-09-01T10:46:14.119Z,7.37
2018-09-01T10:48:40.949Z,4.53
2018-09-01T10:51:08.904Z,4.60
2018-09-01T10:53:35.866Z,4.67
2018-09-01T10:56:03.887Z,7.63
2018-09-01T10:58:30.886Z,4.90
2018-09-01T11:00:57.682Z,4.70
2018-09-01T11:03:24.733Z,7.13
2018-09-01T11:05:52.339Z,5.00
2018-09-01T11:08:19.356Z,6.00
2018-09-01T11:10:46.719Z,4.47
2018-09-01T11:13:13.551Z,5.07
2018-09-01T11:15:40.381Z,5.10
2018-09-01T11:18:07.243Z,5.67
2018-09-01T11:20:34.045Z,5.57
2018-09-01T11:23:00.866Z,6.10
2018-09-01T11:25:27.764Z,4.20
2018-09-01T11:27:54.745Z,5.10
2018-09-01T11:30:21.507Z,6.87
2018-09-01T11:32:48.357Z,3.90
2018-09-01T11:35:15.182Z,4.90
2018-09-01T11:37:42.078Z,7.37
2018-09-01T11:40:08.964Z,3.97
2018-09-01T11:42:35.849Z,3.33
2018-09-01T11:45:02.605Z,6.03
2018-09-01T11:47:29.791Z,6.10
2018-09-01T11:49:56.610Z,5.50
2018-09-01T11:52:23.546Z,4.10
2018-09-01T11:54:50.424Z,5.83
2018-09-01T11:57:17.695Z,11.30
2018-09-01T11:59:44.559Z,11.50
2018-09-01T12:02:11.644Z,4.50
2018-09-01T12:04:38.708Z,7.73
2018-09-01T12:07:05.692Z,5.10
2018-09-01T12:09:32.649Z,7.00
2018-09-01T12:11:59.468Z,5.80
2018-09-01T12:14:26.304Z,3.97
2018-09-01T12:16:53.381Z,5.90
2018-09-01T12:19:20.446Z,5.20
2018-09-01T12:21:47.547Z,5.30
2018-09-01T12:24:14.396Z,5.70
2018-09-01T12:26:41.843Z,5.73
2018-09-01T12:29:08.805Z,10.30
2018-09-01T12:31:35.633Z,5.47
2018-09-01T12:34:02.444Z,7.67
2018-09-01T12:36:29.458Z,4.50
2018-09-01T12:38:57.905Z,6.23
2018-09-01T12:41:24.773Z,3.83
2018-09-01T12:43:51.644Z,6.53
2018-09-01T12:46:18.651Z,5.57
2018-09-01T12:48:45.453Z,6.93
2018-09-01T12:51:12.290Z,4.23
2018-09-01T12:53:39.141Z,4.60
2018-09-01T12:56:06.063Z,8.30
2018-09-01T12:58:32.888Z,3.47
2018-09-01T13:00:59.716Z,9.17
2018-09-01T13:03:26.538Z,4.77
2018-09-01T13:05:53.615Z,5.10
2018-09-01T13:08:20.457Z,6.27
2018-09-01T13:10:47.276Z,5.40
2018-09-01T13:13:14.103Z,4.37
2018-09-01T13:15:41.105Z,8.63
2018-09-01T13:18:07.947Z,15.63
2018-09-01T13:20:34.746Z,14.70
2018-09-01T13:23:01.641Z,11.60
2018-09-01T13:25:28.536Z,11.73
2018-09-01T13:27:55.312Z,10.73
2018-09-01T13:30:22.232Z,13.50
2018-09-01T13:32:49.125Z,11.90
2018-09-01T13:35:15.961Z,11.97
2018-09-01T13:37:42.790Z,9.70
2018-09-01T13:40:09.687Z,10.43
2018-09-01T13:42:36.603Z,7.90
2018-09-01T13:45:03.433Z,6.53
2018-09-01T13:47:30.294Z,16.40
2018-09-01T13:49:57.114Z,6.43
2018-09-01T13:52:23.942Z,17.90
2018-09-01T13:54:50.922Z,12.63
2018-09-01T13:57:17.897Z,10.50
2018-09-01T13:59:44.920Z,7.53
2018-09-01T14:02:11.739Z,13.00
2018-09-01T14:04:38.701Z,5.80
2018-09-01T14:07:05.530Z,13.10
2018-09-01T14:09:32.411Z,6.77
2018-09-01T14:11:59.304Z,7.33
2018-09-01T14:14:27.021Z,6.37
2018-09-01T14:16:53.884Z,6.67
2018-09-01T14:19:20.723Z,4.40
2018-09-01T14:21:47.943Z,4.93
2018-09-01T14:24:14.795Z,5.77
2018-09-01T14:26:41.815Z,8.70
2018-09-01T14:29:09.298Z,7.70
2018-09-01T14:31:36.149Z,7.60
2018-09-01T14:34:03.174Z,12.03
2018-09-01T14:36:30.121Z,12.40
2018-09-01T14:38:57.574Z,10.13
2018-09-01T14:41:25.053Z,16.00
2018-09-01T14:43:51.952Z,5.50
2018-09-01T14:46:18.824Z,5.43
2018-09-01T14:48:45.671Z,3.77
2018-09-01T14:51:12.910Z,5.03
2018-09-01T14:53:39.815Z,8.97
2018-09-01T14:56:06.810Z,9.40
2018-09-01T14:58:33.641Z,6.83
2018-09-01T15:01:00.512Z,4.90
2018-09-01T15:03:27.325Z,6.10
2018-09-01T15:05:54.463Z,6.73
2018-09-01T15:08:21.278Z,7.40
2018-09-01T15:10:48.261Z,4.80
2018-09-01T15:13:15.155Z,6.47
2018-09-01T15:15:42.275Z,6.50
2018-09-01T15:18:09.638Z,5.20
2018-09-01T15:20:36.699Z,4.23
2018-09-01T15:23:05.244Z,3.17
2018-09-01T15:25:33.295Z,2.70
2018-09-01T15:28:00.344Z,3.13
2018-09-01T15:30:27.203Z,5.77
2018-09-01T15:32:54.053Z,3.17
2018-09-01T15:35:21.027Z,5.93
2018-09-01T15:37:47.802Z,4.07
2018-09-01T15:40:14.638Z,2.87
2018-09-01T15:42:41.532Z,3.20
2018-09-01T15:45:08.346Z,3.63
2018-09-01T15:47:35.260Z,3.53
2018-09-01T15:50:02.072Z,4.63
2018-09-01T15:52:28.912Z,4.40
2018-09-01T15:54:55.785Z,4.67
2018-09-01T15:57:22.855Z,3.77
2018-09-01T15:59:49.712Z,3.23
2018-09-01T16:02:17.150Z,4.20
2018-09-01T16:04:44.099Z,4.43
2018-09-01T16:07:11.038Z,5.93
2018-09-01T16:09:37.858Z,5.23
2018-09-01T16:12:04.746Z,3.43
2018-09-01T16:14:31.573Z,10.80
2018-09-01T16:16:58.566Z,5.03
2018-09-01T16:19:25.383Z,7.37
2018-09-01T16:21:52.209Z,5.03
2018-09-01T16:24:19.043Z,4.83
2018-09-01T16:26:45.923Z,5.97
2018-09-01T16:29:12.751Z,5.70
2018-09-01T16:31:39.580Z,7.00
2018-09-01T16:34:06.409Z,5.10
2018-09-01T16:36:33.291Z,6.97
2018-09-01T16:39:00.122Z,7.40
2018-09-01T16:41:26.945Z,7.10
2018-09-01T16:43:53.783Z,6.60
2018-09-01T16:46:20.662Z,7.83
2018-09-01T16:48:47.483Z,4.70
2018-09-01T16:51:14.389Z,6.00
2018-09-01T16:53:41.173Z,7.33
2018-09-01T16:56:08.047Z,11.07
2018-09-01T16:58:34.864Z,6.87
2018-09-01T17:01:01.755Z,12.47
2018-09-01T17:03:28.577Z,4.40
2018-09-01T17:05:55.415Z,4.87
2018-09-01T17:08:22.266Z,5.03
2018-09-01T17:10:49.111Z,9.20
2018-09-01T17:13:15.933Z,10.00
2018-09-01T17:15:42.776Z,8.20
2018-09-01T17:18:09.594Z,6.23
2018-09-01T17:20:36.419Z,9.87
2018-09-01T17:23:03.258Z,22.50
2018-09-01T17:25:30.089Z,10.60
2018-09-01T17:27:56.977Z,6.97
2018-09-01T17:30:23.739Z,6.00
2018-09-01T17:32:50.754Z,7.93
2018-09-01T17:35:17.585Z,5.60
2018-09-01T17:37:44.402Z,5.07
2018-09-01T17:40:11.229Z,4.90
2018-09-01T17:42:38.056Z,8.47
2018-09-01T17:45:04.880Z,3.90
2018-09-01T17:47:32.343Z,5.50
2018-09-01T17:49:59.366Z,9.00
2018-09-01T17:52:26.242Z,14.80
2018-09-01T17:54:53.071Z,8.27
2018-09-01T17:57:19.932Z,4.00
2018-09-01T17:59:46.753Z,5.77
2018-09-01T18:02:13.628Z,11.77
2018-09-01T18:04:40.403Z,5.87
2018-09-01T18:07:07.296Z,6.43
2018-09-01T18:09:34.124Z,4.67
2018-09-01T18:12:00.960Z,9.20
2018-09-01T18:14:27.787Z,4.53
2018-09-01T18:16:54.674Z,3.40
2018-09-01T18:19:21.503Z,5.20
2018-09-01T18:21:48.334Z,5.87
2018-09-01T18:24:15.191Z,8.07
2018-09-01T18:26:42.038Z,5.57
2018-09-01T18:29:08.857Z,6.10
2018-09-01T18:31:35.687Z,6.83
2018-09-01T18:34:02.516Z,6.43
2018-09-01T18:36:29.414Z,8.03
2018-09-01T18:38:56.250Z,4.40
2018-09-01T18:41:23.091Z,4.87
2018-09-01T18:43:49.927Z,5.23
2018-09-01T18:46:16.794Z,6.60
2018-09-01T18:48:43.618Z,13.13
2018-09-01T18:51:10.445Z,5.80
2018-09-01T18:56:10.519Z,6.57
2018-09-01T18:58:37.365Z,15.67
2018-09-01T19:01:04.191Z,9.37
2018-09-01T19:03:31.023Z,10.97
2018-09-01T19:05:57.874Z,8.33
2018-09-01T19:08:24.707Z,4.23
2018-09-01T19:10:51.529Z,9.47
2018-09-01T19:13:18.359Z,10.23
2018-09-01T19:15:45.700Z,15.73
2018-09-01T19:18:12.672Z,6.20
2018-09-01T19:20:39.511Z,4.47
2018-09-01T19:23:06.330Z,8.93
2018-09-01T19:25:33.527Z,11.37
2018-09-01T19:28:00.331Z,3.53
2018-09-01T19:30:27.162Z,7.80
2018-09-01T19:32:54.024Z,4.50
2018-09-01T19:35:20.880Z,2.60
2018-09-01T19:37:47.710Z,5.77
2018-09-01T19:40:16.206Z,4.90
2018-09-01T19:42:43.410Z,3.00
2018-09-01T19:45:10.423Z,3.70
2018-09-01T19:47:38.117Z,7.03
2018-09-01T19:50:05.591Z,6.63
2018-09-01T19:52:34.070Z,4.43
2018-09-01T19:55:01.954Z,3.03
2018-09-01T19:57:30.048Z,8.40
2018-09-01T19:59:57.106Z,4.83
2018-09-01T20:02:25.511Z,3.70
2018-09-01T20:04:52.657Z,5.10
2018-09-01T20:07:19.405Z,3.97
2018-09-01T20:09:46.224Z,12.13
2018-09-01T20:12:13.222Z,6.03
2018-09-01T20:14:40.187Z,8.90
2018-09-01T20:17:07.207Z,2.60
2018-09-01T20:19:34.287Z,6.03
2018-09-01T20:22:01.935Z,4.03
2018-09-01T20:24:29.279Z,4.83
2018-09-01T20:26:56.212Z,4.73
2018-09-01T20:29:23.105Z,4.40
2018-09-01T20:31:50.018Z,4.90
2018-09-01T20:34:17.595Z,3.50
2018-09-01T20:36:44.994Z,9.63
2018-09-01T20:39:11.822Z,4.20
2018-09-01T20:41:38.646Z,8.37
2018-09-01T20:44:05.703Z,7.10
2018-09-01T20:46:33.644Z,3.17
2018-09-01T20:49:00.511Z,8.83
2018-09-01T20:51:27.444Z,2.50
2018-09-01T20:53:54.264Z,3.10
2018-09-01T20:56:21.295Z,4.30
2018-09-01T20:58:48.120Z,6.23
2018-09-01T21:01:14.996Z,5.00
2018-09-01T21:03:41.794Z,3.00
2018-09-01T21:06:08.750Z,2.57
2018-09-01T21:08:35.711Z,2.80
2018-09-01T21:11:02.526Z,2.67
2018-09-01T21:13:29.360Z,5.20
2018-09-01T21:15:56.390Z,6.07
2018-09-01T21:18:23.184Z,2.60
2018-09-01T21:20:55.398Z,2.73
2018-09-01T21:23:22.372Z,2.70
2018-09-01T21:25:49.244Z,2.63
2018-09-01T21:28:16.329Z,2.30
2018-09-01T21:30:43.779Z,2.30
2018-09-01T21:33:17.081Z,4.30
2018-09-01T21:35:43.964Z,2.30
2018-09-01T21:38:10.788Z,2.30
2018-09-01T21:40:37.623Z,2.77
2018-09-01T21:43:04.463Z,2.30
2018-09-01T21:45:31.339Z,4.30
2018-09-01T21:47:58.172Z,4.13
2018-09-01T21:50:25.010Z,2.93
2018-09-01T21:53:03.207Z,4.53
2018-09-01T21:55:30.004Z,3.03
2018-09-01T21:58:06.790Z,2.60
2018-09-01T22:00:33.649Z,2.10
2018-09-01T22:03:04.389Z,3.17
2018-09-01T22:05:31.218Z,3.43
2018-09-01T22:10:32.027Z,6.17
2018-09-01T22:12:58.832Z,2.00
2018-09-01T22:15:28.632Z,2.90
2018-09-01T22:17:55.440Z,5.00
2018-09-01T22:20:22.301Z,3.30
2018-09-01T22:22:49.170Z,2.30
2018-09-01T22:25:16.027Z,2.60
2018-09-01T22:27:42.905Z,3.23
2018-09-01T22:30:09.732Z,1.93
2018-09-01T22:32:36.570Z,2.70
2018-09-01T22:35:03.407Z,3.07
2018-09-01T22:37:30.261Z,2.47
2018-09-01T22:39:57.087Z,1.93
2018-09-01T22:42:23.997Z,2.77
2018-09-01T22:44:50.806Z,2.57
2018-09-01T22:47:18.341Z,1.93
2018-09-01T22:49:45.154Z,4.83
2018-09-01T22:52:11.976Z,2.30
2018-09-01T22:54:39.607Z,2.23
2018-09-01T22:57:06.646Z,2.97
2018-09-01T22:59:33.478Z,2.17
2018-09-01T23:02:00.361Z,3.20
2018-09-01T23:04:27.209Z,3.13
2018-09-01T23:06:57.266Z,4.67
2018-09-01T23:09:24.094Z,2.50
2018-09-01T23:11:50.931Z,2.50
2018-09-01T23:14:17.748Z,2.70
2018-09-01T23:16:44.680Z,2.40
2018-09-01T23:19:11.494Z,2.43
2018-09-01T23:21:38.322Z,2.13
2018-09-01T23:24:05.156Z,2.47
2018-09-01T23:26:32.043Z,3.27
2018-09-01T23:28:58.862Z,2.30
2018-09-01T23:31:25.687Z,2.40
2018-09-01T23:33:52.511Z,4.73
2018-09-01T23:36:19.417Z,2.47
2018-09-01T23:38:46.234Z,6.57
2018-09-01T23:43:46.182Z,4.20
2018-09-01T23:46:13.122Z,3.80
2018-09-01T23:48:39.952Z,2.20
2018-09-01T23:51:06.786Z,2.70
2018-09-01T23:53:33.636Z,2.70
2018-09-01T23:56:00.528Z,3.97
2018-09-01T23:58:27.358Z,3.27
